sensor_id;sensor_type;location;lat;lon;timestamp;P1;durP1;ratioP1;P2;durP2;ratioP2
562;SDS011;266;49.514;8.294;2023-07-13T00:01:18;1.60;;;1.50;;
562;SDS011;266;49.514;8.294;2023-07-13T00:03:47;1.63;;;1.53;;
562;SDS011;266;49.514;8.294;2023-07-13T00:06:15;1.50;;;1.40;;
562;SDS011;266;49.514;8.294;2023-07-13T00:08:43;2.50;;;1.77;;
562;SDS011;266;49.514;8.294;2023-07-13T00:11:11;1.77;;;1.67;;
562;SDS011;266;49.514;8.294;2023-07-13T00:13:40;1.57;;;1.47;;
562;SDS011;266;49.514;8.294;2023-07-13T00:16:09;1.67;;;1.57;;
562;SDS011;266;49.514;8.294;2023-07-13T00:18:40;2.37;;;1.83;;
562;SDS011;266;49.514;8.294;2023-07-13T00:21:08;2.17;;;1.90;;
562;SDS011;266;49.514;8.294;2023-07-13T00:23:37;2.77;;;1.63;;
562;SDS011;266;49.514;8.294;2023-07-13T00:26:06;2.00;;;1.50;;
562;SDS011;266;49.514;8.294;2023-07-13T00:28:37;1.93;;;1.60;;
562;SDS011;266;49.514;8.294;2023-07-13T00:31:07;2.30;;;1.70;;
562;SDS011;266;49.514;8.294;2023-07-13T00:33:36;1.47;;;1.30;;
562;SDS011;266;49.514;8.294;2023-07-13T00:36:04;2.17;;;1.60;;
562;SDS011;266;49.514;8.294;2023-07-13T00:38:32;1.30;;;1.20;;
562;SDS011;266;49.514;8.294;2023-07-13T00:41:00;1.40;;;1.30;;
562;SDS011;266;49.514;8.294;2023-07-13T00:43:31;2.03;;;1.83;;
562;SDS011;266;49.514;8.294;2023-07-13T00:46:12;1.57;;;1.47;;
562;SDS011;266;49.514;8.294;2023-07-13T00:48:46;2.53;;;1.57;;
562;SDS011;266;49.514;8.294;2023-07-13T00:51:17;2.23;;;1.40;;
562;SDS011;266;49.514;8.294;2023-07-13T00:53:49;2.00;;;1.60;;
562;SDS011;266;49.514;8.294;2023-07-13T00:56:18;1.90;;;1.80;;
562;SDS011;266;49.514;8.294;2023-07-13T00:58:46;2.40;;;1.97;;
562;SDS011;266;49.514;8.294;2023-07-13T01:01:15;2.60;;;1.97;;
562;SDS011;266;49.514;8.294;2023-07-13T01:03:43;2.00;;;1.90;;
562;SDS011;266;49.514;8.294;2023-07-13T01:06:12;1.60;;;1.50;;
562;SDS011;266;49.514;8.294;2023-07-13T01:08:41;1.53;;;1.43;;
562;SDS011;266;49.514;8.294;2023-07-13T01:11:09;1.80;;;1.70;;
562;SDS011;266;49.514;8.294;2023-07-13T01:13:37;1.90;;;1.50;;
562;SDS011;266;49.514;8.294;2023-07-13T01:16:05;3.93;;;1.80;;
562;SDS011;266;49.514;8.294;2023-07-13T01:18:43;2.40;;;1.70;;
562;SDS011;266;49.514;8.294;2023-07-13T01:21:12;2.80;;;1.93;;
562;SDS011;266;49.514;8.294;2023-07-13T01:23:40;1.80;;;1.70;;
562;SDS011;266;49.514;8.294;2023-07-13T01:26:10;3.80;;;1.80;;
562;SDS011;266;49.514;8.294;2023-07-13T01:28:39;2.60;;;1.67;;
562;SDS011;266;49.514;8.294;2023-07-13T01:31:07;2.23;;;1.57;;
562;SDS011;266;49.514;8.294;2023-07-13T01:33:36;2.40;;;1.97;;
562;SDS011;266;49.514;8.294;2023-07-13T01:36:05;6.00;;;2.10;;
562;SDS011;266;49.514;8.294;2023-07-13T01:38:35;2.63;;;1.60;;
562;SDS011;266;49.514;8.294;2023-07-13T01:41:03;1.50;;;1.40;;
562;SDS011;266;49.514;8.294;2023-07-13T01:43:31;2.70;;;1.80;;
562;SDS011;266;49.514;8.294;2023-07-13T01:45:59;1.67;;;1.50;;
562;SDS011;266;49.514;8.294;2023-07-13T01:48:47;1.87;;;1.77;;
562;SDS011;266;49.514;8.294;2023-07-13T01:51:15;3.33;;;2.07;;
562;SDS011;266;49.514;8.294;2023-07-13T01:53:45;1.50;;;1.40;;
562;SDS011;266;49.514;8.294;2023-07-13T01:56:13;2.23;;;2.13;;
562;SDS011;266;49.514;8.294;2023-07-13T01:58:41;2.80;;;1.57;;
562;SDS011;266;49.514;8.294;2023-07-13T02:01:09;1.93;;;1.60;;
562;SDS011;266;49.514;8.294;2023-07-13T02:03:37;1.90;;;1.80;;
562;SDS011;266;49.514;8.294;2023-07-13T02:06:04;1.43;;;1.33;;
562;SDS011;266;49.514;8.294;2023-07-13T02:08:32;2.23;;;2.00;;
562;SDS011;266;49.514;8.294;2023-07-13T02:11:03;2.67;;;1.93;;
562;SDS011;266;49.514;8.294;2023-07-13T02:13:31;1.63;;;1.43;;
562;SDS011;266;49.514;8.294;2023-07-13T02:15:59;1.83;;;1.73;;
562;SDS011;266;49.514;8.294;2023-07-13T02:18:27;3.70;;;2.30;;
562;SDS011;266;49.514;8.294;2023-07-13T02:20:55;4.60;;;2.00;;
562;SDS011;266;49.514;8.294;2023-07-13T02:23:23;2.10;;;1.53;;
562;SDS011;266;49.514;8.294;2023-07-13T02:25:54;4.33;;;2.40;;
562;SDS011;266;49.514;8.294;2023-07-13T02:28:24;1.77;;;1.67;;
562;SDS011;266;49.514;8.294;2023-07-13T02:30:52;2.50;;;1.63;;
562;SDS011;266;49.514;8.294;2023-07-13T02:33:20;2.13;;;1.93;;
562;SDS011;266;49.514;8.294;2023-07-13T02:35:48;3.13;;;2.00;;
562;SDS011;266;49.514;8.294;2023-07-13T02:38:16;1.93;;;1.83;;
562;SDS011;266;49.514;8.294;2023-07-13T02:40:44;2.20;;;2.00;;
562;SDS011;266;49.514;8.294;2023-07-13T02:43:13;3.37;;;1.87;;
562;SDS011;266;49.514;8.294;2023-07-13T02:45:44;3.13;;;2.20;;
562;SDS011;266;49.514;8.294;2023-07-13T02:48:13;5.43;;;2.10;;
562;SDS011;266;49.514;8.294;2023-07-13T02:50:41;2.23;;;1.90;;
562;SDS011;266;49.514;8.294;2023-07-13T02:53:11;1.67;;;1.50;;
562;SDS011;266;49.514;8.294;2023-07-13T02:55:38;1.93;;;1.73;;
562;SDS011;266;49.514;8.294;2023-07-13T02:58:07;4.93;;;2.00;;
562;SDS011;266;49.514;8.294;2023-07-13T03:00:37;2.90;;;1.93;;
562;SDS011;266;49.514;8.294;2023-07-13T03:03:09;1.77;;;1.47;;
562;SDS011;266;49.514;8.294;2023-07-13T03:05:37;1.83;;;1.63;;
562;SDS011;266;49.514;8.294;2023-07-13T03:08:08;2.47;;;2.30;;
562;SDS011;266;49.514;8.294;2023-07-13T03:10:36;2.60;;;1.50;;
562;SDS011;266;49.514;8.294;2023-07-13T03:13:05;2.10;;;1.80;;
562;SDS011;266;49.514;8.294;2023-07-13T03:15:33;2.33;;;2.00;;
562;SDS011;266;49.514;8.294;2023-07-13T03:18:01;1.90;;;1.80;;
562;SDS011;266;49.514;8.294;2023-07-13T03:20:33;1.90;;;1.80;;
562;SDS011;266;49.514;8.294;2023-07-13T03:23:01;2.40;;;2.23;;
562;SDS011;266;49.514;8.294;2023-07-13T03:25:29;2.03;;;1.73;;
562;SDS011;266;49.514;8.294;2023-07-13T03:27:57;1.93;;;1.60;;
562;SDS011;266;49.514;8.294;2023-07-13T03:30:25;1.67;;;1.57;;
562;SDS011;266;49.514;8.294;2023-07-13T03:32:53;2.33;;;2.10;;
562;SDS011;266;49.514;8.294;2023-07-13T03:35:21;2.23;;;2.03;;
562;SDS011;266;49.514;8.294;2023-07-13T03:37:50;3.07;;;1.70;;
562;SDS011;266;49.514;8.294;2023-07-13T03:40:18;2.00;;;1.90;;
562;SDS011;266;49.514;8.294;2023-07-13T03:42:46;1.90;;;1.80;;
562;SDS011;266;49.514;8.294;2023-07-13T03:45:14;1.97;;;1.87;;
562;SDS011;266;49.514;8.294;2023-07-13T03:47:42;4.13;;;2.13;;
562;SDS011;266;49.514;8.294;2023-07-13T03:50:10;1.83;;;1.70;;
562;SDS011;266;49.514;8.294;2023-07-13T03:52:38;1.67;;;1.53;;
562;SDS011;266;49.514;8.294;2023-07-13T03:55:08;1.97;;;1.60;;
562;SDS011;266;49.514;8.294;2023-07-13T03:57:36;3.83;;;2.50;;
562;SDS011;266;49.514;8.294;2023-07-13T04:00:06;2.33;;;2.13;;
562;SDS011;266;49.514;8.294;2023-07-13T04:02:35;2.07;;;1.73;;
562;SDS011;266;49.514;8.294;2023-07-13T04:05:04;2.37;;;2.00;;
562;SDS011;266;49.514;8.294;2023-07-13T04:07:32;3.70;;;2.23;;
562;SDS011;266;49.514;8.294;2023-07-13T04:10:00;2.70;;;1.80;;
562;SDS011;266;49.514;8.294;2023-07-13T04:12:30;2.37;;;2.23;;
562;SDS011;266;49.514;8.294;2023-07-13T04:14:58;3.40;;;2.50;;
562;SDS011;266;49.514;8.294;2023-07-13T04:17:26;4.90;;;2.80;;
562;SDS011;266;49.514;8.294;2023-07-13T04:19:54;2.40;;;2.30;;
562;SDS011;266;49.514;8.294;2023-07-13T04:22:22;4.87;;;3.13;;
562;SDS011;266;49.514;8.294;2023-07-13T04:24:50;3.77;;;2.57;;
562;SDS011;266;49.514;8.294;2023-07-13T04:27:18;2.00;;;1.90;;
562;SDS011;266;49.514;8.294;2023-07-13T04:29:50;3.43;;;2.60;;
562;SDS011;266;49.514;8.294;2023-07-13T04:32:18;3.60;;;3.30;;
562;SDS011;266;49.514;8.294;2023-07-13T04:34:45;7.10;;;2.50;;
562;SDS011;266;49.514;8.294;2023-07-13T04:37:13;2.13;;;1.90;;
562;SDS011;266;49.514;8.294;2023-07-13T04:39:41;2.23;;;2.00;;
562;SDS011;266;49.514;8.294;2023-07-13T04:42:09;2.20;;;1.87;;
562;SDS011;266;49.514;8.294;2023-07-13T04:44:37;1.80;;;1.70;;
562;SDS011;266;49.514;8.294;2023-07-13T04:47:06;1.93;;;1.83;;
562;SDS011;266;49.514;8.294;2023-07-13T04:49:34;1.87;;;1.60;;
562;SDS011;266;49.514;8.294;2023-07-13T04:52:03;2.27;;;2.10;;
562;SDS011;266;49.514;8.294;2023-07-13T04:54:31;1.80;;;1.70;;
562;SDS011;266;49.514;8.294;2023-07-13T04:56:59;2.03;;;1.63;;
562;SDS011;266;49.514;8.294;2023-07-13T04:59:27;1.63;;;1.53;;
562;SDS011;266;49.514;8.294;2023-07-13T05:01:55;1.90;;;1.53;;
562;SDS011;266;49.514;8.294;2023-07-13T05:04:24;1.90;;;1.63;;
562;SDS011;266;49.514;8.294;2023-07-13T05:06:53;3.40;;;1.73;;
562;SDS011;266;49.514;8.294;2023-07-13T05:09:20;2.40;;;1.90;;
562;SDS011;266;49.514;8.294;2023-07-13T05:11:49;2.07;;;1.97;;
562;SDS011;266;49.514;8.294;2023-07-13T05:14:17;4.43;;;1.90;;
562;SDS011;266;49.514;8.294;2023-07-13T05:16:45;2.17;;;1.50;;
562;SDS011;266;49.514;8.294;2023-07-13T05:19:12;1.77;;;1.67;;
562;SDS011;266;49.514;8.294;2023-07-13T05:21:42;2.43;;;1.50;;
562;SDS011;266;49.514;8.294;2023-07-13T05:24:09;2.40;;;1.63;;
562;SDS011;266;49.514;8.294;2023-07-13T05:26:50;2.77;;;1.77;;
562;SDS011;266;49.514;8.294;2023-07-13T05:29:19;1.80;;;1.70;;
562;SDS011;266;49.514;8.294;2023-07-13T05:31:47;2.60;;;1.77;;
562;SDS011;266;49.514;8.294;2023-07-13T05:34:16;2.13;;;1.83;;
562;SDS011;266;49.514;8.294;2023-07-13T05:36:44;4.50;;;1.70;;
562;SDS011;266;49.514;8.294;2023-07-13T05:39:12;1.80;;;1.70;;
562;SDS011;266;49.514;8.294;2023-07-13T05:41:40;2.80;;;1.83;;
562;SDS011;266;49.514;8.294;2023-07-13T05:44:08;2.50;;;1.43;;
562;SDS011;266;49.514;8.294;2023-07-13T05:46:36;2.30;;;2.10;;
562;SDS011;266;49.514;8.294;2023-07-13T05:49:04;2.40;;;1.53;;
562;SDS011;266;49.514;8.294;2023-07-13T05:51:32;2.80;;;1.70;;
562;SDS011;266;49.514;8.294;2023-07-13T05:54:01;2.43;;;1.67;;
562;SDS011;266;49.514;8.294;2023-07-13T05:56:29;1.50;;;1.40;;
562;SDS011;266;49.514;8.294;2023-07-13T05:58:57;1.50;;;1.40;;
562;SDS011;266;49.514;8.294;2023-07-13T06:01:25;1.40;;;1.30;;
562;SDS011;266;49.514;8.294;2023-07-13T06:03:53;2.10;;;1.63;;
562;SDS011;266;49.514;8.294;2023-07-13T06:06:21;1.67;;;1.57;;
562;SDS011;266;49.514;8.294;2023-07-13T06:08:49;2.73;;;2.00;;
562;SDS011;266;49.514;8.294;2023-07-13T06:11:19;1.70;;;1.60;;
562;SDS011;266;49.514;8.294;2023-07-13T06:13:49;2.10;;;1.60;;
562;SDS011;266;49.514;8.294;2023-07-13T06:16:17;2.40;;;1.50;;
562;SDS011;266;49.514;8.294;2023-07-13T06:18:45;2.30;;;1.50;;
562;SDS011;266;49.514;8.294;2023-07-13T06:21:14;1.73;;;1.60;;
562;SDS011;266;49.514;8.294;2023-07-13T06:23:44;3.33;;;1.67;;
562;SDS011;266;49.514;8.294;2023-07-13T06:26:14;3.90;;;2.03;;
562;SDS011;266;49.514;8.294;2023-07-13T06:28:45;2.43;;;1.33;;
562;SDS011;266;49.514;8.294;2023-07-13T06:31:13;4.43;;;1.70;;
562;SDS011;266;49.514;8.294;2023-07-13T06:33:42;1.97;;;1.27;;
562;SDS011;266;49.514;8.294;2023-07-13T06:36:11;1.10;;;1.00;;
562;SDS011;266;49.514;8.294;2023-07-13T06:38:39;1.47;;;1.20;;
562;SDS011;266;49.514;8.294;2023-07-13T06:41:07;1.40;;;1.30;;
562;SDS011;266;49.514;8.294;2023-07-13T06:43:36;2.50;;;1.37;;
562;SDS011;266;49.514;8.294;2023-07-13T06:46:05;1.50;;;1.40;;
562;SDS011;266;49.514;8.294;2023-07-13T06:48:34;2.27;;;1.40;;
562;SDS011;266;49.514;8.294;2023-07-13T06:51:02;1.20;;;1.10;;
562;SDS011;266;49.514;8.294;2023-07-13T06:53:30;1.20;;;1.10;;
562;SDS011;266;49.514;8.294;2023-07-13T06:55:58;1.87;;;1.20;;
562;SDS011;266;49.514;8.294;2023-07-13T06:58:26;1.60;;;1.13;;
562;SDS011;266;49.514;8.294;2023-07-13T07:00:54;1.43;;;1.33;;
562;SDS011;266;49.514;8.294;2023-07-13T07:03:23;2.57;;;1.50;;
562;SDS011;266;49.514;8.294;2023-07-13T07:05:52;1.20;;;1.10;;
562;SDS011;266;49.514;8.294;2023-07-13T07:08:20;2.57;;;1.40;;
562;SDS011;266;49.514;8.294;2023-07-13T07:10:48;2.30;;;1.27;;
562;SDS011;266;49.514;8.294;2023-07-13T07:13:20;1.93;;;1.33;;
562;SDS011;266;49.514;8.294;2023-07-13T07:15:49;3.07;;;1.47;;
562;SDS011;266;49.514;8.294;2023-07-13T07:18:17;1.43;;;1.27;;
562;SDS011;266;49.514;8.294;2023-07-13T07:20:46;2.20;;;1.00;;
562;SDS011;266;49.514;8.294;2023-07-13T07:23:16;1.57;;;1.43;;
562;SDS011;266;49.514;8.294;2023-07-13T07:25:45;3.33;;;1.23;;
562;SDS011;266;49.514;8.294;2023-07-13T07:28:14;1.77;;;1.40;;
562;SDS011;266;49.514;8.294;2023-07-13T07:30:47;1.53;;;1.20;;
562;SDS011;266;49.514;8.294;2023-07-13T07:33:19;2.70;;;1.43;;
562;SDS011;266;49.514;8.294;2023-07-13T07:35:48;2.53;;;1.00;;
562;SDS011;266;49.514;8.294;2023-07-13T07:38:20;1.30;;;1.20;;
562;SDS011;266;49.514;8.294;2023-07-13T07:40:50;2.20;;;1.30;;
562;SDS011;266;49.514;8.294;2023-07-13T07:43:21;1.30;;;1.20;;
562;SDS011;266;49.514;8.294;2023-07-13T07:45:49;3.97;;;1.93;;
562;SDS011;266;49.514;8.294;2023-07-13T07:48:17;1.23;;;1.00;;
562;SDS011;266;49.514;8.294;2023-07-13T07:50:45;1.67;;;1.30;;
562;SDS011;266;49.514;8.294;2023-07-13T07:53:14;2.00;;;1.23;;
562;SDS011;266;49.514;8.294;2023-07-13T07:55:42;2.97;;;1.30;;
562;SDS011;266;49.514;8.294;2023-07-13T07:58:13;1.50;;;1.40;;
562;SDS011;266;49.514;8.294;2023-07-13T08:01:02;1.47;;;1.30;;
562;SDS011;266;49.514;8.294;2023-07-13T08:03:34;2.30;;;1.20;;
562;SDS011;266;49.514;8.294;2023-07-13T08:06:06;2.90;;;1.37;;
562;SDS011;266;49.514;8.294;2023-07-13T08:08:38;1.70;;;1.60;;
562;SDS011;266;49.514;8.294;2023-07-13T08:11:07;2.03;;;1.20;;
562;SDS011;266;49.514;8.294;2023-07-13T08:13:38;1.40;;;1.00;;
562;SDS011;266;49.514;8.294;2023-07-13T08:16:06;1.00;;;0.90;;
562;SDS011;266;49.514;8.294;2023-07-13T08:18:35;1.50;;;1.20;;
562;SDS011;266;49.514;8.294;2023-07-13T08:21:03;2.60;;;1.40;;
562;SDS011;266;49.514;8.294;2023-07-13T08:23:32;3.40;;;1.50;;
562;SDS011;266;49.514;8.294;2023-07-13T08:26:16;1.43;;;1.10;;
562;SDS011;266;49.514;8.294;2023-07-13T08:29:03;2.73;;;1.80;;
562;SDS011;266;49.514;8.294;2023-07-13T08:31:31;1.40;;;1.30;;
562;SDS011;266;49.514;8.294;2023-07-13T08:34:01;1.80;;;1.17;;
562;SDS011;266;49.514;8.294;2023-07-13T08:36:28;1.63;;;1.27;;
562;SDS011;266;49.514;8.294;2023-07-13T08:38:56;1.57;;;1.23;;
562;SDS011;266;49.514;8.294;2023-07-13T08:41:26;1.70;;;1.20;;
562;SDS011;266;49.514;8.294;2023-07-13T08:43:56;2.57;;;1.47;;
562;SDS011;266;49.514;8.294;2023-07-13T08:46:28;1.30;;;1.20;;
562;SDS011;266;49.514;8.294;2023-07-13T08:49:03;1.60;;;1.50;;
562;SDS011;266;49.514;8.294;2023-07-13T08:51:35;1.60;;;1.27;;
562;SDS011;266;49.514;8.294;2023-07-13T08:54:12;1.20;;;1.10;;
562;SDS011;266;49.514;8.294;2023-07-13T08:56:47;2.00;;;1.03;;
562;SDS011;266;49.514;8.294;2023-07-13T08:59:20;2.47;;;1.37;;
562;SDS011;266;49.514;8.294;2023-07-13T09:01:55;1.37;;;1.13;;
562;SDS011;266;49.514;8.294;2023-07-13T09:04:41;3.50;;;1.60;;
562;SDS011;266;49.514;8.294;2023-07-13T09:07:18;3.83;;;1.40;;
562;SDS011;266;49.514;8.294;2023-07-13T09:12:53;1.10;;;1.00;;
562;SDS011;266;49.514;8.294;2023-07-13T09:15:28;1.13;;;1.00;;
562;SDS011;266;49.514;8.294;2023-07-13T09:18:00;1.23;;;1.13;;
562;SDS011;266;49.514;8.294;2023-07-13T09:20:33;1.60;;;1.33;;
562;SDS011;266;49.514;8.294;2023-07-13T09:23:05;1.27;;;1.17;;
562;SDS011;266;49.514;8.294;2023-07-13T09:25:38;2.70;;;1.53;;
562;SDS011;266;49.514;8.294;2023-07-13T09:28:12;2.13;;;1.40;;
562;SDS011;266;49.514;8.294;2023-07-13T09:30:46;1.33;;;1.10;;
562;SDS011;266;49.514;8.294;2023-07-13T09:33:19;2.13;;;1.37;;
562;SDS011;266;49.514;8.294;2023-07-13T09:35:49;1.43;;;1.33;;
562;SDS011;266;49.514;8.294;2023-07-13T09:38:17;1.30;;;1.10;;
562;SDS011;266;49.514;8.294;2023-07-13T09:41:04;1.20;;;1.10;;
562;SDS011;266;49.514;8.294;2023-07-13T09:46:35;1.77;;;1.10;;
562;SDS011;266;49.514;8.294;2023-07-13T09:49:03;2.60;;;1.17;;
562;SDS011;266;49.514;8.294;2023-07-13T09:51:31;1.47;;;0.97;;
562;SDS011;266;49.514;8.294;2023-07-13T09:53:59;7.40;;;1.50;;
562;SDS011;266;49.514;8.294;2023-07-13T09:56:28;2.07;;;1.47;;
562;SDS011;266;49.514;8.294;2023-07-13T09:58:58;1.20;;;1.10;;
562;SDS011;266;49.514;8.294;2023-07-13T10:01:35;2.90;;;1.13;;
562;SDS011;266;49.514;8.294;2023-07-13T10:04:10;2.17;;;1.40;;
562;SDS011;266;49.514;8.294;2023-07-13T10:06:40;1.50;;;1.40;;
562;SDS011;266;49.514;8.294;2023-07-13T10:09:09;1.83;;;1.23;;
562;SDS011;266;49.514;8.294;2023-07-13T10:11:39;1.37;;;1.27;;
562;SDS011;266;49.514;8.294;2023-07-13T10:14:10;1.40;;;1.17;;
562;SDS011;266;49.514;8.294;2023-07-13T10:16:41;1.37;;;1.07;;
562;SDS011;266;49.514;8.294;2023-07-13T10:19:12;1.40;;;1.07;;
562;SDS011;266;49.514;8.294;2023-07-13T10:21:46;1.93;;;1.00;;
562;SDS011;266;49.514;8.294;2023-07-13T10:24:19;3.80;;;1.30;;
562;SDS011;266;49.514;8.294;2023-07-13T10:26:52;2.83;;;1.40;;
562;SDS011;266;49.514;8.294;2023-07-13T10:29:23;2.03;;;1.20;;
562;SDS011;266;49.514;8.294;2023-07-13T10:31:56;1.83;;;1.43;;
562;SDS011;266;49.514;8.294;2023-07-13T10:34:24;2.70;;;1.23;;
562;SDS011;266;49.514;8.294;2023-07-13T10:36:52;1.10;;;1.00;;
562;SDS011;266;49.514;8.294;2023-07-13T10:39:21;1.07;;;0.97;;
562;SDS011;266;49.514;8.294;2023-07-13T10:41:53;1.77;;;1.20;;
562;SDS011;266;49.514;8.294;2023-07-13T10:44:25;2.30;;;1.23;;
562;SDS011;266;49.514;8.294;2023-07-13T10:46:57;2.00;;;1.20;;
562;SDS011;266;49.514;8.294;2023-07-13T10:49:28;1.90;;;1.30;;
562;SDS011;266;49.514;8.294;2023-07-13T10:51:58;3.40;;;1.27;;
562;SDS011;266;49.514;8.294;2023-07-13T10:54:27;2.60;;;1.40;;
562;SDS011;266;49.514;8.294;2023-07-13T10:57:10;1.23;;;1.13;;
562;SDS011;266;49.514;8.294;2023-07-13T10:59:45;1.60;;;1.30;;
562;SDS011;266;49.514;8.294;2023-07-13T11:02:21;3.13;;;1.20;;
562;SDS011;266;49.514;8.294;2023-07-13T11:04:55;4.27;;;1.90;;
562;SDS011;266;49.514;8.294;2023-07-13T11:07:25;2.03;;;1.37;;
562;SDS011;266;49.514;8.294;2023-07-13T11:09:55;1.73;;;1.27;;
562;SDS011;266;49.514;8.294;2023-07-13T11:15:27;1.47;;;1.37;;
562;SDS011;266;49.514;8.294;2023-07-13T11:18:03;3.53;;;1.50;;
562;SDS011;266;49.514;8.294;2023-07-13T11:20:33;1.23;;;1.03;;
562;SDS011;266;49.514;8.294;2023-07-13T11:23:16;1.77;;;1.63;;
562;SDS011;266;49.514;8.294;2023-07-13T11:25:54;1.57;;;1.30;;
562;SDS011;266;49.514;8.294;2023-07-13T11:28:23;1.40;;;1.30;;
562;SDS011;266;49.514;8.294;2023-07-13T11:31:02;1.50;;;1.23;;
562;SDS011;266;49.514;8.294;2023-07-13T11:33:53;2.73;;;1.27;;
562;SDS011;266;49.514;8.294;2023-07-13T11:36:29;1.20;;;1.00;;
562;SDS011;266;49.514;8.294;2023-07-13T11:39:04;2.03;;;1.30;;
562;SDS011;266;49.514;8.294;2023-07-13T11:41:43;2.83;;;2.60;;
562;SDS011;266;49.514;8.294;2023-07-13T11:44:13;1.70;;;1.60;;
562;SDS011;266;49.514;8.294;2023-07-13T11:46:47;1.63;;;1.10;;
562;SDS011;266;49.514;8.294;2023-07-13T11:49:22;2.50;;;1.40;;
562;SDS011;266;49.514;8.294;2023-07-13T11:51:53;1.30;;;1.03;;
562;SDS011;266;49.514;8.294;2023-07-13T11:54:26;2.30;;;1.40;;
562;SDS011;266;49.514;8.294;2023-07-13T11:56:57;2.23;;;1.57;;
562;SDS011;266;49.514;8.294;2023-07-13T11:59:29;4.70;;;1.30;;
562;SDS011;266;49.514;8.294;2023-07-13T12:01:58;1.43;;;1.10;;
562;SDS011;266;49.514;8.294;2023-07-13T12:04:29;2.60;;;1.30;;
562;SDS011;266;49.514;8.294;2023-07-13T12:07:03;2.00;;;1.43;;
562;SDS011;266;49.514;8.294;2023-07-13T12:09:35;2.23;;;1.30;;
562;SDS011;266;49.514;8.294;2023-07-13T12:12:08;2.43;;;1.70;;
562;SDS011;266;49.514;8.294;2023-07-13T12:14:39;2.23;;;1.20;;
562;SDS011;266;49.514;8.294;2023-07-13T12:17:09;1.43;;;1.20;;
562;SDS011;266;49.514;8.294;2023-07-13T12:19:44;2.90;;;1.17;;
562;SDS011;266;49.514;8.294;2023-07-13T12:22:14;2.10;;;1.30;;
562;SDS011;266;49.514;8.294;2023-07-13T12:24:44;2.60;;;1.30;;
562;SDS011;266;49.514;8.294;2023-07-13T12:27:16;2.07;;;1.50;;
562;SDS011;266;49.514;8.294;2023-07-13T12:29:49;1.87;;;1.77;;
562;SDS011;266;49.514;8.294;2023-07-13T12:32:20;2.10;;;1.70;;
562;SDS011;266;49.514;8.294;2023-07-13T12:34:53;4.97;;;1.53;;
562;SDS011;266;49.514;8.294;2023-07-13T12:37:22;1.77;;;1.40;;
562;SDS011;266;49.514;8.294;2023-07-13T12:39:51;1.37;;;1.20;;
562;SDS011;266;49.514;8.294;2023-07-13T12:42:20;3.13;;;1.37;;
562;SDS011;266;49.514;8.294;2023-07-13T12:44:53;2.20;;;1.57;;
562;SDS011;266;49.514;8.294;2023-07-13T12:47:22;1.70;;;1.40;;
562;SDS011;266;49.514;8.294;2023-07-13T12:49:50;2.43;;;1.40;;
562;SDS011;266;49.514;8.294;2023-07-13T12:52:27;1.47;;;1.37;;
562;SDS011;266;49.514;8.294;2023-07-13T12:55:01;3.20;;;1.20;;
562;SDS011;266;49.514;8.294;2023-07-13T12:57:37;2.00;;;1.40;;
562;SDS011;266;49.514;8.294;2023-07-13T13:00:19;2.83;;;1.50;;
562;SDS011;266;49.514;8.294;2023-07-13T13:02:51;1.40;;;1.27;;
562;SDS011;266;49.514;8.294;2023-07-13T13:05:35;1.77;;;1.10;;
562;SDS011;266;49.514;8.294;2023-07-13T13:08:04;2.60;;;1.30;;
562;SDS011;266;49.514;8.294;2023-07-13T13:10:32;2.13;;;1.23;;
562;SDS011;266;49.514;8.294;2023-07-13T13:13:02;1.43;;;1.33;;
562;SDS011;266;49.514;8.294;2023-07-13T13:15:31;1.30;;;1.20;;
562;SDS011;266;49.514;8.294;2023-07-13T13:17:59;5.03;;;1.50;;
562;SDS011;266;49.514;8.294;2023-07-13T13:20:27;3.10;;;1.10;;
562;SDS011;266;49.514;8.294;2023-07-13T13:22:57;1.43;;;1.17;;
562;SDS011;266;49.514;8.294;2023-07-13T13:25:25;1.20;;;1.10;;
562;SDS011;266;49.514;8.294;2023-07-13T13:27:53;1.83;;;1.73;;
562;SDS011;266;49.514;8.294;2023-07-13T13:30:22;1.70;;;1.60;;
562;SDS011;266;49.514;8.294;2023-07-13T13:32:50;1.60;;;1.50;;
562;SDS011;266;49.514;8.294;2023-07-13T13:35:19;1.67;;;1.50;;
562;SDS011;266;49.514;8.294;2023-07-13T13:37:48;2.63;;;1.40;;
562;SDS011;266;49.514;8.294;2023-07-13T13:40:20;3.23;;;1.40;;
562;SDS011;266;49.514;8.294;2023-07-13T13:42:49;2.03;;;1.33;;
562;SDS011;266;49.514;8.294;2023-07-13T13:45:19;2.30;;;1.33;;
562;SDS011;266;49.514;8.294;2023-07-13T13:47:47;1.87;;;1.53;;
562;SDS011;266;49.514;8.294;2023-07-13T13:50:16;2.17;;;1.30;;
562;SDS011;266;49.514;8.294;2023-07-13T13:52:48;2.53;;;1.40;;
562;SDS011;266;49.514;8.294;2023-07-13T13:55:18;1.30;;;1.20;;
562;SDS011;266;49.514;8.294;2023-07-13T13:57:50;1.60;;;1.13;;
562;SDS011;266;49.514;8.294;2023-07-13T14:00:19;2.70;;;1.40;;
562;SDS011;266;49.514;8.294;2023-07-13T14:02:48;1.63;;;1.10;;
562;SDS011;266;49.514;8.294;2023-07-13T14:05:19;1.73;;;1.50;;
562;SDS011;266;49.514;8.294;2023-07-13T14:07:49;1.67;;;1.33;;
562;SDS011;266;49.514;8.294;2023-07-13T14:10:19;1.77;;;1.30;;
562;SDS011;266;49.514;8.294;2023-07-13T14:12:50;1.40;;;1.20;;
562;SDS011;266;49.514;8.294;2023-07-13T14:15:20;1.67;;;1.57;;
562;SDS011;266;49.514;8.294;2023-07-13T14:17:50;2.30;;;1.50;;
562;SDS011;266;49.514;8.294;2023-07-13T14:20:19;1.73;;;1.50;;
562;SDS011;266;49.514;8.294;2023-07-13T14:22:48;2.10;;;1.17;;
562;SDS011;266;49.514;8.294;2023-07-13T14:25:17;1.33;;;1.23;;
562;SDS011;266;49.514;8.294;2023-07-13T14:27:48;1.20;;;1.10;;
562;SDS011;266;49.514;8.294;2023-07-13T14:30:19;3.23;;;1.70;;
562;SDS011;266;49.514;8.294;2023-07-13T14:32:49;1.43;;;1.20;;
562;SDS011;266;49.514;8.294;2023-07-13T14:35:18;1.60;;;1.50;;
562;SDS011;266;49.514;8.294;2023-07-13T14:37:50;5.30;;;1.40;;
562;SDS011;266;49.514;8.294;2023-07-13T14:40:21;1.20;;;1.10;;
562;SDS011;266;49.514;8.294;2023-07-13T14:42:54;1.67;;;1.47;;
562;SDS011;266;49.514;8.294;2023-07-13T14:45:21;2.10;;;1.40;;
562;SDS011;266;49.514;8.294;2023-07-13T14:47:50;3.47;;;1.10;;
562;SDS011;266;49.514;8.294;2023-07-13T14:50:19;2.73;;;1.30;;
562;SDS011;266;49.514;8.294;2023-07-13T14:52:48;1.40;;;1.30;;
562;SDS011;266;49.514;8.294;2023-07-13T14:55:17;1.20;;;1.10;;
562;SDS011;266;49.514;8.294;2023-07-13T14:57:48;1.50;;;1.07;;
562;SDS011;266;49.514;8.294;2023-07-13T15:00:19;1.60;;;1.50;;
562;SDS011;266;49.514;8.294;2023-07-13T15:02:49;1.33;;;1.07;;
562;SDS011;266;49.514;8.294;2023-07-13T15:05:21;2.30;;;1.20;;
562;SDS011;266;49.514;8.294;2023-07-13T15:07:50;1.63;;;1.20;;
562;SDS011;266;49.514;8.294;2023-07-13T15:10:20;1.50;;;1.20;;
562;SDS011;266;49.514;8.294;2023-07-13T15:12:50;2.57;;;1.20;;
562;SDS011;266;49.514;8.294;2023-07-13T15:15:20;2.63;;;1.20;;
562;SDS011;266;49.514;8.294;2023-07-13T15:17:49;1.67;;;1.43;;
562;SDS011;266;49.514;8.294;2023-07-13T15:20:23;1.70;;;1.40;;
562;SDS011;266;49.514;8.294;2023-07-13T15:22:58;2.80;;;1.40;;
562;SDS011;266;49.514;8.294;2023-07-13T15:25:30;5.40;;;1.30;;
562;SDS011;266;49.514;8.294;2023-07-13T15:28:00;2.20;;;1.30;;
562;SDS011;266;49.514;8.294;2023-07-13T15:30:31;1.90;;;1.30;;
562;SDS011;266;49.514;8.294;2023-07-13T15:33:09;1.63;;;1.30;;
562;SDS011;266;49.514;8.294;2023-07-13T15:35:40;1.93;;;1.20;;
562;SDS011;266;49.514;8.294;2023-07-13T15:38:12;1.30;;;1.20;;
562;SDS011;266;49.514;8.294;2023-07-13T15:40:42;2.50;;;1.10;;
562;SDS011;266;49.514;8.294;2023-07-13T15:43:11;1.87;;;1.00;;
562;SDS011;266;49.514;8.294;2023-07-13T15:45:41;1.93;;;1.20;;
562;SDS011;266;49.514;8.294;2023-07-13T15:48:11;1.33;;;1.23;;
562;SDS011;266;49.514;8.294;2023-07-13T15:50:43;1.40;;;1.30;;
562;SDS011;266;49.514;8.294;2023-07-13T15:53:14;1.33;;;1.23;;
562;SDS011;266;49.514;8.294;2023-07-13T15:55:46;1.60;;;1.20;;
562;SDS011;266;49.514;8.294;2023-07-13T15:58:14;1.20;;;1.10;;
562;SDS011;266;49.514;8.294;2023-07-13T16:00:44;1.47;;;1.20;;
562;SDS011;266;49.514;8.294;2023-07-13T16:03:15;2.80;;;1.10;;
562;SDS011;266;49.514;8.294;2023-07-13T16:05:46;1.27;;;0.87;;
562;SDS011;266;49.514;8.294;2023-07-13T16:08:16;1.97;;;1.00;;
562;SDS011;266;49.514;8.294;2023-07-13T16:10:50;2.30;;;1.03;;
562;SDS011;266;49.514;8.294;2023-07-13T16:13:19;1.10;;;1.00;;